Time;durP1;ratioP1;P1;durP2;ratioP2;P2;SDS_P1;SDS_P2;PMS_P1;PMS_P2;Temp;Humidity;BMP_temperature;BMP_pressure;BME280_temperature;BME280_humidity;BME280_pressure;Samples;Min_cycle;Max_cycle;Signal;HPM_P1;HPM_P2
2021/05/03 05:56:08;;;;;;;6.20;4.15;;;;;;;;;;10503568;28;20397;-83
2021/05/03 06:01:10;;;;;;;7.32;5.72;;;;;;;;;;10506844;28;20052;-83
2021/05/03 06:06:44;;;;;;;4.68;4.10;;;;;;;;;;10458208;28;20053;-83
2021/05/03 06:12:28;;;;;;;4.75;4.25;;;;;;;;;;10428140;28;20029;-83
2021/05/03 06:18:13;;;;;;;4.30;3.78;;;;;;;;;;10497183;28;20028;-84
2021/05/03 06:23:43;;;;;;;6.20;5.47;;;;;;;;;;10505220;28;20112;-83
2021/05/03 06:29:11;;;;;;;7.15;6.03;;;;;;;;;;10520157;28;20029;-81
2021/05/03 06:34:51;;;;;;;6.38;4.10;;;;;;;;;;10355094;28;20046;-81
2021/05/03 06:40:13;;;;;;;6.10;4.45;;;;;;;;;;10346456;28;20027;-83
2021/05/03 06:45:30;;;;;;;4.07;3.35;;;;;;;;;;10438848;28;20040;-84
2021/05/03 06:51:06;;;;;;;4.70;4.25;;;;;;;;;;10507092;28;20035;-83
2021/05/03 06:56:33;;;;;;;3.85;3.40;;;;;;;;;;10472551;28;20075;-82
2021/05/03 07:01:36;;;;;;;4.07;1.70;;;;;;;;;;10504623;28;20103;-82
2021/05/03 07:12:40;;;;;;;4.80;3.97;;;;;;;;;;10475131;28;20029;-82
2021/05/03 07:18:08;;;;;;;4.03;2.55;;;;;;;;;;10476919;28;20083;-82
2021/05/03 07:40:06;;;;;;;3.20;2.15;;;;;;;;;;10371639;28;20037;-86
2021/05/03 07:45:27;;;;;;;2.90;1.75;;;;;;;;;;10431229;28;20056;-86
2021/05/03 07:50:43;;;;;;;4.85;2.47;;;;;;;;;;10422892;28;20045;-86
2021/05/03 07:55:44;;;;;;;2.67;1.60;;;;;;;;;;10426289;28;20029;-86
2021/05/03 08:00:47;;;;;;;3.88;2.80;;;;;;;;;;10427261;28;20037;-86
2021/05/03 08:05:55;;;;;;;4.22;1.80;;;;;;;;;;10427624;28;20039;-86
2021/05/03 08:10:56;;;;;;;3.95;1.85;;;;;;;;;;10424253;28;20034;-86
2021/05/03 08:15:59;;;;;;;3.95;2.10;;;;;;;;;;10414470;28;20373;-85
2021/05/03 08:26:40;;;;;;;3.50;1.90;;;;;;;;;;10448697;28;20025;-85
2021/05/03 08:31:41;;;;;;;2.70;2.03;;;;;;;;;;10423007;28;20029;-82
2021/05/03 08:36:42;;;;;;;5.38;2.00;;;;;;;;;;10428319;28;20411;-84
2021/05/03 08:41:49;;;;;;;3.70;2.25;;;;;;;;;;10445571;28;20446;-85
2021/05/03 08:46:50;;;;;;;3.58;1.65;;;;;;;;;;10425653;28;20081;-85
2021/05/03 08:56:59;;;;;;;3.28;1.90;;;;;;;;;;10432958;28;20022;-86
2021/05/03 09:02:00;;;;;;;3.85;1.80;;;;;;;;;;10414366;28;20041;-85
2021/05/03 09:07:10;;;;;;;7.55;4.70;;;;;;;;;;10411602;28;20033;-85
2021/05/03 09:12:16;;;;;;;8.95;5.22;;;;;;;;;;10435466;28;20064;-85
2021/05/03 09:17:28;;;;;;;4.80;2.42;;;;;;;;;;10418844;28;20480;-84
2021/05/03 09:22:42;;;;;;;5.75;2.60;;;;;;;;;;10419321;28;20037;-86
2021/05/03 09:27:43;;;;;;;3.47;2.60;;;;;;;;;;10414765;28;20044;-88
2021/05/03 09:32:44;;;;;;;4.78;2.70;;;;;;;;;;10423302;28;20041;-83
2021/05/03 09:37:45;;;;;;;5.07;2.80;;;;;;;;;;10417245;28;20029;-85
2021/05/03 09:42:46;;;;;;;8.40;4.72;;;;;;;;;;10421885;28;20045;-84
2021/05/03 09:47:49;;;;;;;4.88;2.80;;;;;;;;;;10410670;28;20067;-86
2021/05/03 09:53:19;;;;;;;4.45;3.10;;;;;;;;;;10409717;28;20037;-86
2021/05/03 09:58:23;;;;;;;5.50;2.92;;;;;;;;;;10402988;28;20487;-86
2021/05/03 10:03:45;;;;;;;4.82;3.33;;;;;;;;;;10407696;28;20044;-85
2021/05/03 10:08:49;;;;;;;3.63;2.58;;;;;;;;;;10415385;28;20407;-88
2021/05/03 10:13:51;;;;;;;5.53;3.58;;;;;;;;;;10419095;28;20033;-84
2021/05/03 10:18:52;;;;;;;3.20;2.60;;;;;;;;;;10416057;28;20032;-86
2021/05/03 10:23:54;;;;;;;5.78;2.22;;;;;;;;;;10437973;28;20088;-83
2021/05/03 10:28:56;;;;;;;3.15;2.20;;;;;;;;;;10418722;28;20087;-85
2021/05/03 10:33:57;;;;;;;3.85;3.00;;;;;;;;;;10409346;28;20045;-87
2021/05/03 10:38:58;;;;;;;5.00;3.75;;;;;;;;;;10409882;28;20038;-85
2021/05/03 10:44:22;;;;;;;3.97;2.22;;;;;;;;;;10434819;28;20077;-84
2021/05/03 10:49:46;;;;;;;4.32;2.17;;;;;;;;;;10423433;28;20040;-83
2021/05/03 10:54:53;;;;;;;3.80;2.80;;;;;;;;;;10446321;28;20029;-82
2021/05/03 10:59:58;;;;;;;4.03;3.08;;;;;;;;;;10427724;28;20399;-84
2021/05/03 11:05:23;;;;;;;3.17;2.17;;;;;;;;;;10424935;28;20064;-85
2021/05/03 11:10:43;;;;;;;3.05;2.20;;;;;;;;;;10423156;28;20095;-85
2021/05/03 11:15:44;;;;;;;3.63;2.00;;;;;;;;;;10431631;28;20395;-85
2021/05/03 11:20:58;;;;;;;3.90;2.85;;;;;;;;;;10437798;28;20041;-82
2021/05/03 11:26:00;;;;;;;3.40;2.05;;;;;;;;;;10422535;28;20475;-83
2021/05/03 11:31:11;;;;;;;3.80;3.03;;;;;;;;;;10414689;28;20042;-84
2021/05/03 11:36:30;;;;;;;2.75;2.25;;;;;;;;;;10414980;28;20044;-84
2021/05/03 11:46:50;;;;;;;3.58;2.33;;;;;;;;;;10435596;28;20124;-81
2021/05/03 11:51:53;;;;;;;3.30;2.25;;;;;;;;;;10420447;28;20033;-85
2021/05/03 11:56:55;;;;;;;3.17;2.42;;;;;;;;;;10421212;28;20037;-83
2021/05/03 12:02:03;;;;;;;2.47;2.20;;;;;;;;;;10431376;28;20040;-83
2021/05/03 12:07:10;;;;;;;3.70;2.33;;;;;;;;;;10421107;28;20038;-83
2021/05/03 12:12:12;;;;;;;3.80;2.15;;;;;;;;;;10416672;28;20036;-83
2021/05/03 12:17:17;;;;;;;4.05;3.20;;;;;;;;;;10416658;28;20041;-85
2021/05/03 12:22:19;;;;;;;7.35;4.22;;;;;;;;;;10418864;28;20037;-84
2021/05/03 12:27:20;;;;;;;4.05;2.45;;;;;;;;;;10434128;28;20033;-86
2021/05/03 12:32:21;;;;;;;4.07;3.03;;;;;;;;;;10415263;28;20037;-85
2021/05/03 12:37:32;;;;;;;3.22;2.30;;;;;;;;;;10418540;28;20036;-87
2021/05/03 12:42:38;;;;;;;3.05;2.10;;;;;;;;;;10411386;28;20045;-85
2021/05/03 12:47:56;;;;;;;3.05;2.08;;;;;;;;;;10414795;28;20411;-86
2021/05/03 12:53:05;;;;;;;3.60;2.27;;;;;;;;;;10436964;28;20029;-84
2021/05/03 13:04:03;;;;;;;4.88;4.05;;;;;;;;;;10416360;28;20286;-88
2021/05/03 13:25:30;;;;;;;4.13;2.50;;;;;;;;;;10465972;28;20050;-83
2021/05/03 13:36:32;;;;;;;4.43;2.70;;;;;;;;;;10451474;28;20033;-87
2021/05/03 13:41:53;;;;;;;3.25;2.60;;;;;;;;;;10449007;28;20037;-85
2021/05/03 13:47:35;;;;;;;4.95;4.45;;;;;;;;;;10457811;28;20022;-87
2021/05/03 13:53:35;;;;;;;4.88;4.15;;;;;;;;;;10347698;28;20031;-85
2021/05/03 13:59:10;;;;;;;4.63;4.10;;;;;;;;;;10417285;28;20087;-83
2021/05/03 14:04:42;;;;;;;3.40;2.80;;;;;;;;;;10344476;28;20101;-85
2021/05/03 14:10:25;;;;;;;6.22;3.65;;;;;;;;;;10324842;28;20061;-85
2021/05/03 14:15:46;;;;;;;5.25;3.35;;;;;;;;;;10347144;28;20039;-84
2021/05/03 14:20:49;;;;;;;2.88;2.35;;;;;;;;;;10335900;28;20117;-84
2021/05/03 14:26:32;;;;;;;3.92;3.53;;;;;;;;;;10352712;28;20084;-84
2021/05/03 14:32:10;;;;;;;2.90;2.30;;;;;;;;;;10330668;28;20408;-84
2021/05/03 14:37:12;;;;;;;;;;;;;;;;;;10354777;28;20034;-84
2021/05/03 14:59:17;;;;;;;2.77;2.10;;;;;;;;;;10312593;28;20022;-83
2021/05/03 15:10:00;;;;;;;3.35;2.10;;;;;;;;;;10440530;28;20037;-84
2021/05/03 15:15:15;;;;;;;3.15;2.10;;;;;;;;;;10441478;28;20034;-83
2021/05/03 15:21:17;;;;;;;4.25;2.45;;;;;;;;;;10440572;28;20033;-84
2021/05/03 15:25:50;;;;;;;2.78;2.13;;;;;;;;;;10440275;28;20052;-84
2021/05/03 15:37:07;;;;;;;3.78;3.35;;;;;;;;;;10406594;28;20034;-85
2021/05/03 15:48:29;;;;;;;4.57;4.13;;;;;;;;;;10423532;28;20153;-84
2021/05/03 16:51:38;;;;;;;3.20;2.55;;;;;;;;;;10470772;28;20368;-87
2021/05/03 20:03:44;;;;;;;2.92;2.63;;;;;;;;;;10533828;28;20033;-85
2021/05/03 20:09:31;;;;;;;7.80;4.50;;;;;;;;;;10479873;28;20017;-84
2021/05/03 20:20:18;;;;;;;5.35;4.40;;;;;;;;;;10521514;28;20390;-83
